Time;durP1;ratioP1;P1;durP2;ratioP2;P2;SDS_P1;SDS_P2;PMS_P1;PMS_P2;Temp;Humidity;BMP_temperature;BMP_pressure;BME280_temperature;BME280_humidity;BME280_pressure;Samples;Min_cycle;Max_cycle;Signal;HPM_P1;HPM_P2
2020/12/25 00:01:02;;;;;;;13.07;6.32;;;4.00;99.90;;;;;;12362815;28;20053;-85
2020/12/25 00:07:10;;;;;;;10.20;6.75;;;4.20;99.90;;;;;;12374867;28;20054;-85
2020/12/25 00:13:11;;;;;;;11.13;7.80;;;4.10;99.90;;;;;;12365374;28;20041;-85
2020/12/25 00:19:13;;;;;;;13.40;7.97;;;4.10;99.90;;;;;;12392465;28;20133;-84
2020/12/25 00:25:14;;;;;;;17.48;9.50;;;4.10;99.90;;;;;;12367754;28;20110;-83
2020/12/25 00:31:41;;;;;;;18.50;11.00;;;4.10;99.90;;;;;;12364515;28;20053;-84
2020/12/25 00:37:43;;;;;;;18.92;11.77;;;3.90;99.90;;;;;;12367604;28;20045;-84
2020/12/25 00:43:44;;;;;;;14.32;10.30;;;3.90;99.90;;;;;;12387232;28;20552;-84
2020/12/25 00:49:45;;;;;;;15.00;10.60;;;3.90;99.90;;;;;;12396399;28;20066;-83
2020/12/25 00:55:47;;;;;;;16.90;10.40;;;3.70;99.90;;;;;;12379287;28;20057;-84
2020/12/25 01:01:51;;;;;;;13.30;8.80;;;3.60;99.90;;;;;;12375227;28;20057;-84
2020/12/25 01:07:53;;;;;;;11.82;8.27;;;3.50;99.90;;;;;;12379941;28;20042;-84
2020/12/25 01:13:54;;;;;;;14.52;8.35;;;3.60;99.90;;;;;;12421203;28;20062;-84
2020/12/25 01:19:56;;;;;;;8.48;6.35;;;3.50;99.90;;;;;;12384108;28;20055;-84
2020/12/25 01:25:57;;;;;;;8.00;5.65;;;3.60;99.90;;;;;;12383068;28;20506;-84
2020/12/25 01:31:58;;;;;;;16.20;9.70;;;3.50;99.90;;;;;;12379219;28;20066;-83
2020/12/25 01:38:07;;;;;;;15.88;10.60;;;3.50;99.90;;;;;;12389371;28;20650;-86
2020/12/25 01:44:08;;;;;;;15.05;10.23;;;3.40;99.90;;;;;;12399198;28;20076;-85
2020/12/25 01:50:11;;;;;;;18.80;10.70;;;3.30;99.90;;;;;;12392404;28;20077;-84
2020/12/25 01:56:15;;;;;;;19.00;9.90;;;3.20;99.90;;;;;;12380986;28;20051;-82
2020/12/25 02:02:17;;;;;;;15.40;8.13;;;3.30;99.90;;;;;;12368002;28;20046;-82
2020/12/25 02:08:25;;;;;;;10.18;6.85;;;3.10;99.90;;;;;;12375841;28;20058;-82
2020/12/25 02:14:27;;;;;;;11.68;6.63;;;3.00;99.90;;;;;;12398293;28;20042;-82
2020/12/25 02:20:28;;;;;;;11.50;6.10;;;2.90;99.90;;;;;;12387381;28;20057;-83
2020/12/25 02:26:30;;;;;;;13.10;7.00;;;3.00;99.90;;;;;;12376660;28;20062;-83
2020/12/25 02:32:32;;;;;;;14.63;6.45;;;3.00;99.90;;;;;;12383159;28;20062;-85
2020/12/25 02:38:47;;;;;;;10.10;6.63;;;2.90;99.90;;;;;;12389069;28;20033;-84
2020/12/25 02:44:49;;;;;;;13.45;7.00;;;2.60;99.90;;;;;;12375173;28;20061;-86
2020/12/25 02:50:50;;;;;;;14.95;8.38;;;2.70;99.90;;;;;;12360442;28;20062;-86
2020/12/25 02:56:51;;;;;;;15.73;8.23;;;2.80;99.90;;;;;;12370311;28;20038;-86
2020/12/25 03:02:53;;;;;;;12.90;6.70;;;2.70;99.90;;;;;;12397504;28;20057;-85
2020/12/25 03:09:06;;;;;;;10.52;6.70;;;2.60;99.90;;;;;;12363717;28;20062;-85
2020/12/25 03:15:07;;;;;;;9.77;5.80;;;2.50;99.90;;;;;;12364730;28;20201;-86
2020/12/25 03:21:08;;;;;;;11.98;6.35;;;2.50;99.90;;;;;;12351634;28;20528;-86
2020/12/25 03:27:10;;;;;;;9.98;5.68;;;2.50;99.90;;;;;;12417379;28;20045;-86
2020/12/25 03:33:11;;;;;;;7.78;5.57;;;2.30;99.90;;;;;;12353957;28;20088;-86
2020/12/25 03:39:24;;;;;;;10.48;5.10;;;2.40;99.90;;;;;;12351097;28;20609;-86
2020/12/25 03:45:26;;;;;;;7.22;4.63;;;2.60;99.90;;;;;;12346273;28;20141;-86
2020/12/25 03:51:27;;;;;;;8.38;5.22;;;2.50;99.90;;;;;;12320109;28;20137;-87
2020/12/25 03:57:29;;;;;;;9.15;5.05;;;2.30;99.90;;;;;;12376059;28;20053;-86
2020/12/25 04:03:30;;;;;;;9.35;4.78;;;2.40;99.90;;;;;;12383325;28;20057;-86
2020/12/25 04:09:43;;;;;;;9.40;5.32;;;2.50;99.90;;;;;;12374560;28;20065;-86
2020/12/25 04:15:44;;;;;;;14.15;6.22;;;2.60;99.90;;;;;;12389052;28;20076;-87
2020/12/25 04:21:45;;;;;;;10.50;5.60;;;2.50;99.90;;;;;;12374553;28;20085;-86
2020/12/25 04:27:47;;;;;;;9.02;5.00;;;2.50;99.90;;;;;;12388366;28;20069;-86
2020/12/25 04:33:48;;;;;;;8.75;5.10;;;2.40;99.90;;;;;;12357558;28;20058;-86
2020/12/25 04:40:04;;;;;;;;;;;2.30;99.90;;;;;;12382042;28;20509;-86
2020/12/25 04:46:06;;;;;;;8.30;5.25;;;2.30;99.90;;;;;;12369794;28;19926;-87
2020/12/25 04:52:08;;;;;;;7.18;4.68;;;2.20;99.90;;;;;;12373346;28;20077;-86
2020/12/25 04:58:10;;;;;;;6.82;4.53;;;2.20;99.90;;;;;;12374153;28;20053;-86
2020/12/25 05:04:18;;;;;;;12.73;5.38;;;2.50;99.90;;;;;;12361477;28;20050;-86
2020/12/25 05:10:21;;;;;;;12.30;6.65;;;2.50;99.90;;;;;;12385837;28;20058;-87
2020/12/25 05:16:22;;;;;;;11.35;7.68;;;2.30;99.90;;;;;;12380716;28;20047;-86
2020/12/25 05:22:25;;;;;;;12.40;7.18;;;2.20;99.90;;;;;;12389054;28;20056;-86
2020/12/25 05:28:28;;;;;;;12.73;7.00;;;1.90;99.90;;;;;;12377075;28;20138;-86
2020/12/25 05:34:33;;;;;;;11.93;7.28;;;1.90;99.90;;;;;;12390334;28;20049;-86
2020/12/25 05:40:42;;;;;;;13.02;7.38;;;1.90;99.90;;;;;;12365045;28;20573;-86
2020/12/25 05:46:44;;;;;;;14.52;7.60;;;2.00;99.90;;;;;;12371752;28;20061;-86
2020/12/25 05:52:48;;;;;;;13.57;7.97;;;2.10;99.90;;;;;;12377561;28;20519;-86
2020/12/25 05:58:52;;;;;;;16.98;8.95;;;2.20;99.90;;;;;;12385045;28;20422;-86
2020/12/25 06:04:55;;;;;;;;;;;2.10;99.90;;;;;;12380866;28;20109;-86
2020/12/25 06:11:04;;;;;;;17.33;9.93;;;2.30;99.90;;;;;;12383901;28;19929;-86
2020/12/25 06:17:37;;;;;;;20.90;9.98;;;2.10;99.90;;;;;;12370493;28;20315;-86
2020/12/25 06:23:42;;;;;;;16.58;9.23;;;2.00;99.90;;;;;;12358629;28;20471;-86
2020/12/25 06:29:44;;;;;;;16.05;10.07;;;2.00;99.90;;;;;;12374412;28;20054;-86
2020/12/25 06:35:47;;;;;;;18.30;9.00;;;2.00;99.90;;;;;;12379344;28;20054;-86
2020/12/25 06:41:48;;;;;;;17.58;9.40;;;2.00;99.90;;;;;;12396058;28;20053;-85
2020/12/25 06:47:50;;;;;;;19.10;9.00;;;2.00;99.90;;;;;;12368653;28;20085;-86
2020/12/25 06:53:56;;;;;;;18.80;11.13;;;2.10;99.90;;;;;;12368740;28;20418;-85
2020/12/25 07:00:01;;;;;;;12.80;6.95;;;2.30;99.90;;;;;;12377614;28;20053;-85
2020/12/25 07:06:04;;;;;;;19.00;5.95;;;2.40;99.90;;;;;;12385462;28;20086;-85
2020/12/25 07:12:23;;;;;;;12.43;5.38;;;2.20;99.90;;;;;;12368268;28;20050;-85
2020/12/25 07:18:25;;;;;;;14.68;6.70;;;2.00;99.90;;;;;;12407375;28;20053;-86
2020/12/25 07:24:26;;;;;;;29.35;8.55;;;1.80;99.90;;;;;;12367458;28;20070;-85
2020/12/25 07:30:29;;;;;;;12.68;5.30;;;1.60;99.90;;;;;;12382796;28;20407;-87
2020/12/25 07:36:30;;;;;;;17.83;7.75;;;1.40;99.90;;;;;;12387872;28;20168;-86
2020/12/25 07:42:32;;;;;;;14.23;5.95;;;1.30;99.90;;;;;;12373155;28;20074;-85
2020/12/25 07:48:34;;;;;;;15.52;4.85;;;1.10;99.90;;;;;;12372315;28;20058;-86
2020/12/25 07:54:35;;;;;;;14.60;6.80;;;1.10;99.90;;;;;;12362529;28;20104;-86
2020/12/25 08:00:37;;;;;;;12.27;4.63;;;0.90;99.90;;;;;;12389706;28;20042;-86
2020/12/25 08:06:38;;;;;;;13.20;3.50;;;0.90;99.90;;;;;;12378831;28;20062;-86
2020/12/25 08:12:43;;;;;;;8.82;2.90;;;0.90;99.90;;;;;;12358783;28;20073;-86
2020/12/25 08:18:48;;;;;;;8.00;2.73;;;1.10;99.90;;;;;;12370279;28;20081;-86
2020/12/25 08:24:50;;;;;;;7.00;2.45;;;1.20;99.90;;;;;;12379176;28;20149;-86
2020/12/25 08:30:51;;;;;;;8.15;2.13;;;1.30;99.90;;;;;;12361532;28;20109;-86
2020/12/25 08:36:57;;;;;;;7.88;1.90;;;1.60;99.90;;;;;;12367650;28;20589;-86
2020/12/25 08:43:10;;;;;;;10.18;2.28;;;1.90;99.90;;;;;;12376072;28;20234;-85
2020/12/25 08:49:11;;;;;;;8.70;1.80;;;1.80;99.90;;;;;;12389554;28;20050;-86
2020/12/25 08:55:23;;;;;;;8.15;2.03;;;1.90;99.90;;;;;;12379360;28;20050;-86
2020/12/25 09:01:28;;;;;;;;;;;2.20;99.90;;;;;;12383970;28;20078;-86
2020/12/25 09:07:30;;;;;;;9.88;1.90;;;2.40;99.90;;;;;;12371778;28;19928;-86
2020/12/25 09:13:31;;;;;;;6.78;1.75;;;2.60;99.90;;;;;;12384442;28;20467;-86
2020/12/25 09:19:32;;;;;;;7.35;1.80;;;2.60;99.90;;;;;;12368551;28;20058;-85
2020/12/25 09:25:34;;;;;;;7.25;1.80;;;2.70;99.90;;;;;;12396646;28;20081;-86
2020/12/25 09:31:35;;;;;;;8.40;1.80;;;2.80;99.90;;;;;;12379103;28;20415;-86
2020/12/25 09:37:37;;;;;;;6.18;2.10;;;2.80;99.90;;;;;;12374235;28;20074;-86
2020/12/25 09:43:40;;;;;;;7.97;1.67;;;2.90;99.90;;;;;;12383047;28;20054;-86
2020/12/25 09:49:42;;;;;;;9.85;2.13;;;2.80;99.90;;;;;;12397658;28;20050;-86
2020/12/25 09:55:43;;;;;;;6.45;2.08;;;2.90;99.90;;;;;;12371074;28;20093;-86
2020/12/25 10:01:45;;;;;;;6.50;1.70;;;2.80;99.90;;;;;;12368015;28;20058;-86
2020/12/25 10:07:48;;;;;;;11.52;2.13;;;2.90;99.90;;;;;;12354455;28;20058;-84
2020/12/25 10:13:49;;;;;;;8.07;2.03;;;2.90;99.90;;;;;;12349213;28;20074;-84
2020/12/25 10:19:51;;;;;;;7.68;2.10;;;3.00;99.90;;;;;;12370678;28;20069;-84
2020/12/25 10:25:52;;;;;;;13.90;2.45;;;3.30;99.90;;;;;;12373868;28;20058;-84
2020/12/25 10:31:54;;;;;;;6.18;1.50;;;3.30;99.90;;;;;;12394016;28;20080;-84
2020/12/25 10:37:55;;;;;;;8.13;1.75;;;3.70;99.90;;;;;;12403184;28;20209;-84
2020/12/25 10:44:03;;;;;;;9.52;1.70;;;3.50;99.90;;;;;;12376531;28;20426;-84
2020/12/25 10:50:04;;;;;;;6.93;1.73;;;4.10;99.90;;;;;;12366671;28;20057;-84
2020/12/25 10:56:06;;;;;;;6.80;1.88;;;4.20;99.90;;;;;;12387868;28;20050;-84
2020/12/25 11:02:07;;;;;;;9.57;1.92;;;4.10;99.90;;;;;;12365943;28;21744;-84
2020/12/25 11:08:10;;;;;;;8.32;1.83;;;3.90;99.90;;;;;;12390245;28;20108;-84
2020/12/25 11:14:27;;;;;;;6.13;1.92;;;4.20;99.90;;;;;;12364189;28;20491;-84
2020/12/25 11:20:28;;;;;;;8.32;1.83;;;4.10;99.90;;;;;;12367592;28;20046;-83
2020/12/25 11:26:36;;;;;;;7.53;1.77;;;4.10;99.90;;;;;;12385696;28;20054;-83
2020/12/25 11:32:38;;;;;;;6.80;1.95;;;4.50;99.90;;;;;;12389129;28;20046;-84
2020/12/25 11:38:40;;;;;;;8.95;2.10;;;4.60;99.90;;;;;;12382159;28;20061;-83
2020/12/25 11:44:43;;;;;;;9.05;2.22;;;4.40;99.90;;;;;;12368599;28;20050;-83
2020/12/25 11:50:44;;;;;;;8.07;1.83;;;4.60;99.90;;;;;;12367583;28;20504;-83
2020/12/25 11:56:45;;;;;;;7.68;1.90;;;4.70;99.90;;;;;;12388532;28;20184;-83
2020/12/25 12:02:46;;;;;;;7.30;2.20;;;4.90;99.90;;;;;;12365907;28;20049;-83
2020/12/25 12:08:48;;;;;;;8.00;1.83;;;5.00;99.90;;;;;;12368753;28;20149;-83
2020/12/25 12:15:01;;;;;;;5.40;1.60;;;5.00;99.90;;;;;;12376450;28;20054;-83
2020/12/25 12:21:02;;;;;;;7.95;1.48;;;5.00;99.90;;;;;;12381511;28;20093;-83
2020/12/25 12:27:04;;;;;;;5.75;1.27;;;4.90;99.90;;;;;;12350806;28;20140;-83
2020/12/25 12:33:05;;;;;;;7.07;1.55;;;4.80;99.90;;;;;;12358668;28;20054;-83
2020/12/25 12:39:06;;;;;;;4.78;1.55;;;4.70;99.90;;;;;;12349843;28;20133;-84
2020/12/25 12:45:19;;;;;;;6.05;1.65;;;4.80;99.90;;;;;;12360958;28;20092;-83
2020/12/25 12:51:20;;;;;;;6.22;1.48;;;4.70;99.90;;;;;;12384145;28;20683;-84
2020/12/25 12:57:21;;;;;;;6.65;1.70;;;4.70;99.90;;;;;;12369369;28;20073;-84
2020/12/25 13:03:23;;;;;;;4.72;1.30;;;4.70;99.90;;;;;;12382950;28;20046;-84
2020/12/25 13:09:24;;;;;;;9.63;1.50;;;4.70;99.90;;;;;;12373246;28;20054;-84
2020/12/25 13:15:39;;;;;;;6.20;1.65;;;4.70;99.90;;;;;;12357475;28;20056;-84
2020/12/25 13:21:40;;;;;;;3.28;0.95;;;4.60;99.90;;;;;;12365651;28;20877;-84
2020/12/25 13:27:42;;;;;;;6.82;1.40;;;4.60;99.90;;;;;;12363737;28;20050;-84
2020/12/25 13:33:44;;;;;;;6.53;1.30;;;4.60;99.90;;;;;;12332860;28;21932;-84
2020/12/25 13:39:46;;;;;;;7.85;0.93;;;4.40;99.90;;;;;;12376618;28;20081;-84
2020/12/25 13:46:01;;;;;;;4.97;1.42;;;4.30;99.90;;;;;;12389624;28;20077;-85
2020/12/25 13:52:02;;;;;;;6.65;1.52;;;4.20;99.90;;;;;;12374015;28;20050;-84
2020/12/25 13:58:03;;;;;;;6.35;1.42;;;4.10;99.90;;;;;;12391673;28;20055;-84
2020/12/25 14:04:05;;;;;;;6.65;1.67;;;4.00;99.90;;;;;;12390574;28;20135;-84
2020/12/25 14:10:06;;;;;;;5.15;1.13;;;3.80;99.90;;;;;;12372693;28;20070;-84
2020/12/25 14:16:25;;;;;;;7.57;2.70;;;3.70;99.90;;;;;;12397629;28;20146;-84
2020/12/25 14:22:27;;;;;;;2.63;1.05;;;3.60;99.90;;;;;;12387163;28;20061;-84
2020/12/25 14:28:28;;;;;;;4.82;1.42;;;3.60;99.90;;;;;;12369831;28;20066;-84
2020/12/25 14:34:30;;;;;;;4.55;1.05;;;3.60;99.90;;;;;;12379587;28;20065;-84
2020/12/25 14:40:34;;;;;;;1.73;1.02;;;3.50;99.90;;;;;;12381636;28;20757;-84
2020/12/25 14:46:48;;;;;;;4.10;1.27;;;3.60;99.90;;;;;;12369252;28;20050;-84
2020/12/25 14:52:50;;;;;;;4.45;1.40;;;3.50;99.90;;;;;;12387430;28;20356;-84
2020/12/25 14:58:51;;;;;;;5.78;1.20;;;3.20;99.90;;;;;;12387999;28;20058;-83
2020/12/25 15:04:52;;;;;;;5.70;1.50;;;3.10;99.90;;;;;;12369564;28;20069;-84
2020/12/25 15:10:53;;;;;;;6.72;1.90;;;3.00;99.90;;;;;;12379260;28;20077;-84
2020/12/25 15:16:59;;;;;;;5.53;2.85;;;2.70;99.90;;;;;;12396087;28;20046;-84
2020/12/25 15:23:01;;;;;;;10.30;4.30;;;2.60;99.90;;;;;;12414151;28;20490;-84
2020/12/25 15:29:02;;;;;;;11.38;5.00;;;2.70;99.90;;;;;;12388698;28;20605;-83
2020/12/25 15:35:04;;;;;;;10.85;5.32;;;2.70;99.90;;;;;;12380534;28;20058;-84
2020/12/25 15:41:05;;;;;;;12.55;5.88;;;2.70;99.90;;;;;;12391729;28;20089;-84
2020/12/25 15:47:19;;;;;;;13.43;7.10;;;2.60;99.90;;;;;;12382360;28;20058;-83
2020/12/25 15:53:20;;;;;;;17.55;7.00;;;2.40;99.90;;;;;;12389408;28;20057;-83
2020/12/25 15:59:22;;;;;;;13.88;7.68;;;2.20;99.90;;;;;;12382044;28;20045;-83
2020/12/25 16:05:24;;;;;;;12.40;9.10;;;2.00;99.90;;;;;;12370238;28;20053;-83
2020/12/25 16:11:26;;;;;;;19.35;10.82;;;1.80;99.90;;;;;;12366447;28;20043;-83
2020/12/25 16:17:37;;;;;;;19.00;10.48;;;1.60;99.90;;;;;;12362842;28;20449;-83
2020/12/25 16:23:39;;;;;;;19.33;11.90;;;1.60;99.90;;;;;;12381636;28;20145;-83
2020/12/25 16:29:40;;;;;;;19.45;12.30;;;1.50;99.90;;;;;;12375424;28;20513;-83
2020/12/25 16:35:42;;;;;;;21.60;13.30;;;1.40;99.90;;;;;;12363058;28;20050;-83
2020/12/25 16:41:47;;;;;;;28.00;16.10;;;1.20;99.90;;;;;;12368949;28;20051;-83
2020/12/25 16:47:58;;;;;;;25.17;14.20;;;1.10;99.90;;;;;;12378027;28;20053;-83
2020/12/25 16:53:59;;;;;;;26.25;14.60;;;0.90;99.90;;;;;;12358838;28;20471;-83
2020/12/25 17:00:01;;;;;;;31.83;18.20;;;0.90;99.90;;;;;;12351708;28;20128;-83
2020/12/25 17:06:02;;;;;;;28.98;16.27;;;0.80;99.90;;;;;;12351563;28;21422;-83
2020/12/25 17:12:03;;;;;;;25.40;15.40;;;0.70;99.90;;;;;;12358495;28;20054;-83
2020/12/25 17:18:17;;;;;;;36.78;16.48;;;0.80;99.90;;;;;;12383517;28;20085;-83
2020/12/25 17:24:19;;;;;;;24.13;15.63;;;0.70;99.90;;;;;;12394729;28;20810;-83
2020/12/25 17:30:20;;;;;;;40.00;20.88;;;0.70;99.90;;;;;;12398838;28;20054;-83
2020/12/25 17:36:21;;;;;;;30.10;17.05;;;0.70;99.90;;;;;;12382090;28;20146;-83
2020/12/25 17:42:23;;;;;;;28.92;16.17;;;0.70;99.90;;;;;;12405311;28;20046;-82
2020/12/25 17:48:35;;;;;;;25.85;15.82;;;0.70;99.90;;;;;;12386779;28;20081;-82
2020/12/25 17:54:37;;;;;;;28.35;15.43;;;0.70;99.90;;;;;;12388546;28;20076;-82
2020/12/25 18:00:38;;;;;;;34.60;15.70;;;0.80;99.90;;;;;;12395567;28;20096;-83
2020/12/25 18:06:40;;;;;;;26.05;15.48;;;0.70;99.90;;;;;;12383178;28;20058;-82
2020/12/25 18:12:41;;;;;;;26.55;16.67;;;0.60;99.90;;;;;;12398594;28;20310;-82
2020/12/25 18:18:53;;;;;;;31.17;19.92;;;0.50;99.90;;;;;;12380354;28;20049;-82
2020/12/25 18:24:54;;;;;;;32.15;17.75;;;0.50;99.90;;;;;;12386186;28;20137;-82
2020/12/25 18:30:56;;;;;;;32.90;17.10;;;0.50;99.90;;;;;;12396592;28;20065;-82
2020/12/25 18:36:58;;;;;;;33.10;17.92;;;0.60;99.90;;;;;;12371237;28;20057;-82
2020/12/25 18:42:59;;;;;;;31.25;16.75;;;0.50;99.90;;;;;;12414668;28;20050;-82
2020/12/25 18:49:14;;;;;;;38.53;20.23;;;0.50;99.90;;;;;;12362257;28;20046;-82
2020/12/25 18:55:15;;;;;;;27.60;16.60;;;0.50;99.90;;;;;;12383964;28;20054;-82
2020/12/25 19:01:17;;;;;;;28.00;15.85;;;0.50;99.90;;;;;;12387661;28;20053;-82
2020/12/25 19:07:18;;;;;;;31.50;17.15;;;0.40;99.90;;;;;;12384395;28;20572;-81
2020/12/25 19:13:20;;;;;;;30.25;17.90;;;0.50;99.90;;;;;;12394797;28;20462;-82
2020/12/25 19:19:32;;;;;;;28.48;17.48;;;0.50;99.90;;;;;;12387110;28;20105;-82
2020/12/25 19:25:34;;;;;;;35.55;19.10;;;0.50;99.90;;;;;;12365903;28;20057;-82
2020/12/25 19:31:38;;;;;;;33.70;18.45;;;0.40;99.90;;;;;;12370748;28;20077;-82
2020/12/25 19:37:39;;;;;;;30.07;16.57;;;0.40;99.90;;;;;;12384355;28;20054;-82
2020/12/25 19:43:41;;;;;;;26.58;14.48;;;0.60;99.90;;;;;;12368215;28;20530;-82
2020/12/25 19:49:49;;;;;;;34.50;16.52;;;0.70;99.90;;;;;;12389743;28;20192;-82
2020/12/25 19:55:51;;;;;;;33.63;15.25;;;0.80;99.90;;;;;;12369610;28;20084;-82
2020/12/25 20:01:52;;;;;;;37.65;22.10;;;0.90;99.90;;;;;;12367853;28;20129;-82
2020/12/25 20:07:54;;;;;;;35.17;19.83;;;0.90;99.90;;;;;;12368179;28;20195;-82
2020/12/25 20:13:56;;;;;;;36.85;21.08;;;0.70;99.90;;;;;;12391580;28;20059;-82
2020/12/25 20:20:09;;;;;;;39.88;20.63;;;0.70;99.90;;;;;;12374455;28;20050;-82
2020/12/25 20:26:16;;;;;;;34.80;19.17;;;0.70;99.90;;;;;;12392017;28;20414;-82
2020/12/25 20:32:18;;;;;;;36.63;18.45;;;0.70;99.90;;;;;;12388333;28;20073;-82
2020/12/25 20:38:20;;;;;;;30.63;17.45;;;0.70;99.90;;;;;;12368034;28;20050;-82
2020/12/25 20:44:21;;;;;;;35.17;19.05;;;0.80;99.90;;;;;;12374993;28;20050;-83
2020/12/25 20:50:32;;;;;;;32.40;17.80;;;0.80;99.90;;;;;;12391374;28;20459;-82
2020/12/25 20:56:33;;;;;;;38.38;18.05;;;0.70;99.90;;;;;;12377160;28;20150;-82
2020/12/25 21:02:34;;;;;;;37.67;19.45;;;0.70;99.90;;;;;;12377007;28;20076;-82
2020/12/25 21:08:36;;;;;;;42.85;21.42;;;0.70;99.90;;;;;;12365164;28;20073;-82
2020/12/25 21:14:39;;;;;;;39.45;20.92;;;0.70;99.90;;;;;;12363072;28;20066;-82
2020/12/25 21:20:53;;;;;;;45.88;21.42;;;0.70;99.90;;;;;;12355312;28;20057;-82
2020/12/25 21:26:55;;;;;;;47.25;22.20;;;0.70;99.90;;;;;;12383832;28;20058;-82
2020/12/25 21:32:56;;;;;;;40.67;20.80;;;0.70;99.90;;;;;;12375688;28;20046;-82
2020/12/25 21:38:57;;;;;;;42.65;20.52;;;0.70;99.90;;;;;;12375991;28;20058;-82
2020/12/25 21:44:59;;;;;;;39.17;19.88;;;0.60;99.90;;;;;;12391905;28;20057;-82
2020/12/25 21:51:09;;;;;;;36.90;18.63;;;0.70;99.90;;;;;;12366156;28;20394;-82
2020/12/25 21:57:10;;;;;;;31.20;18.05;;;0.90;99.90;;;;;;12372788;28;20084;-82
2020/12/25 22:03:12;;;;;;;34.60;20.67;;;1.20;99.90;;;;;;12380238;28;20054;-82
2020/12/25 22:09:14;;;;;;;34.05;18.98;;;1.10;99.90;;;;;;12372796;28;20081;-82
2020/12/25 22:15:15;;;;;;;37.58;17.45;;;1.00;99.90;;;;;;12395659;28;20046;-82
2020/12/25 22:21:40;;;;;;;37.63;18.13;;;0.90;99.90;;;;;;12432633;28;20309;-83
2020/12/25 22:27:42;;;;;;;32.45;18.50;;;0.90;99.90;;;;;;12386245;28;20065;-82
2020/12/25 22:33:43;;;;;;;39.72;19.02;;;0.80;99.90;;;;;;12379912;28;20050;-82
2020/12/25 22:39:45;;;;;;;38.35;18.92;;;0.80;99.90;;;;;;12395833;28;20058;-81
2020/12/25 22:45:46;;;;;;;39.28;19.23;;;0.90;99.90;;;;;;12379483;28;20045;-82
2020/12/25 22:51:53;;;;;;;37.70;18.85;;;0.90;99.90;;;;;;12388504;28;20057;-82
2020/12/25 22:57:54;;;;;;;41.60;18.58;;;0.90;99.90;;;;;;12387061;28;20074;-82
2020/12/25 23:03:56;;;;;;;32.40;17.85;;;0.90;99.90;;;;;;12366152;28;20502;-82
2020/12/25 23:09:57;;;;;;;34.50;18.48;;;1.10;99.90;;;;;;12383480;28;20403;-82
2020/12/25 23:15:59;;;;;;;31.67;18.02;;;1.10;99.90;;;;;;12357254;28;20092;-81
2020/12/25 23:22:11;;;;;;;31.73;18.25;;;1.10;99.90;;;;;;12366103;28;20565;-82
2020/12/25 23:28:12;;;;;;;40.38;19.00;;;1.10;99.90;;;;;;12391917;28;20100;-81
2020/12/25 23:34:14;;;;;;;35.95;18.48;;;1.10;99.90;;;;;;12386754;28;20074;-82
2020/12/25 23:40:15;;;;;;;35.38;18.20;;;1.10;99.90;;;;;;12370463;28;20061;-82
2020/12/25 23:46:18;;;;;;;32.88;16.77;;;1.10;99.90;;;;;;12390699;28;20057;-81
2020/12/25 23:52:32;;;;;;;35.50;17.48;;;1.10;99.90;;;;;;12382993;28;20058;-82
2020/12/25 23:58:34;;;;;;;32.90;18.17;;;1.20;99.90;;;;;;12371884;28;20077;-82
